Time;durP1;ratioP1;P1;durP2;ratioP2;P2;SDS_P1;SDS_P2;PMS_P1;PMS_P2;Temp;Humidity;BMP_temperature;BMP_pressure;BME280_temperature;BME280_humidity;BME280_pressure;Samples;Min_cycle;Max_cycle;Signal;HPM_P1;HPM_P2
2023/05/28 00:00:30;;;;;;;29.23;10.70;;;10.80;99.90;;;;;;5045649;28;20152;-64
2023/05/28 00:02:56;;;;;;;41.80;13.18;;;10.80;99.90;;;;;;5063403;28;20179;-65
2023/05/28 00:05:22;;;;;;;45.65;14.27;;;10.80;99.90;;;;;;5045684;28;20115;-65
2023/05/28 00:07:48;;;;;;;32.45;13.73;;;10.80;99.90;;;;;;5064741;28;20059;-67
2023/05/28 00:10:14;;;;;;;39.58;14.43;;;10.80;99.90;;;;;;5063030;28;20032;-65
2023/05/28 00:12:40;;;;;;;37.78;15.30;;;10.80;99.90;;;;;;5064283;28;20446;-65
2023/05/28 00:15:06;;;;;;;39.75;14.73;;;10.80;99.90;;;;;;5062864;28;20663;-65
2023/05/28 00:17:36;;;;;;;40.80;14.73;;;10.80;99.90;;;;;;5064847;28;20036;-66
2023/05/28 00:20:04;;;;;;;33.60;12.13;;;10.80;99.90;;;;;;5047271;28;20033;-65
2023/05/28 00:22:29;;;;;;;29.92;11.70;;;10.80;99.90;;;;;;5064452;28;20121;-64
2023/05/28 00:24:55;;;;;;;36.58;12.23;;;10.70;99.90;;;;;;5043129;28;20122;-65
2023/05/28 00:27:21;;;;;;;30.42;11.73;;;10.70;99.90;;;;;;5044467;28;20041;-66
2023/05/28 00:29:46;;;;;;;38.72;11.70;;;10.70;99.90;;;;;;5044224;28;20052;-65
2023/05/28 00:32:12;;;;;;;36.38;10.20;;;10.70;99.90;;;;;;5043227;28;20580;-66
2023/05/28 00:34:38;;;;;;;27.23;9.75;;;10.60;99.90;;;;;;5047594;28;20028;-66
2023/05/28 00:37:04;;;;;;;26.15;9.75;;;10.70;99.90;;;;;;5062982;28;20093;-67
2023/05/28 00:39:30;;;;;;;31.98;10.30;;;10.70;99.90;;;;;;5049531;28;20154;-66
2023/05/28 00:42:10;;;;;;;32.60;9.57;;;10.70;99.90;;;;;;5045298;28;20040;-66
2023/05/28 00:44:36;;;;;;;25.98;9.60;;;10.70;99.90;;;;;;5043889;28;20041;-66
2023/05/28 00:47:02;;;;;;;34.33;12.07;;;10.70;99.90;;;;;;5043743;28;20117;-66
2023/05/28 00:49:28;;;;;;;35.60;12.18;;;10.70;99.90;;;;;;5026574;28;20488;-66
2023/05/28 00:51:55;;;;;;;33.10;11.45;;;10.70;99.90;;;;;;5058650;28;20476;-66
2023/05/28 00:54:22;;;;;;;31.13;10.93;;;10.70;99.90;;;;;;5045665;28;20537;-66
2023/05/28 00:56:48;;;;;;;30.20;11.32;;;10.70;99.90;;;;;;5043524;28;20047;-66
2023/05/28 00:59:16;;;;;;;31.60;11.00;;;10.60;99.90;;;;;;5042957;28;20856;-66
2023/05/28 01:01:42;;;;;;;29.35;10.55;;;10.60;99.90;;;;;;5042974;28;20076;-65
2023/05/28 01:04:08;;;;;;;32.15;10.65;;;10.60;99.90;;;;;;5044666;28;20055;-66
2023/05/28 01:06:38;;;;;;;29.98;11.75;;;10.60;99.90;;;;;;5041265;28;20033;-66
2023/05/28 01:09:08;;;;;;;33.65;10.02;;;10.70;99.90;;;;;;5063040;28;20044;-67
2023/05/28 01:11:34;;;;;;;27.17;8.70;;;10.70;99.90;;;;;;5062952;28;20040;-65
2023/05/28 01:14:01;;;;;;;26.52;8.90;;;10.70;99.90;;;;;;5058995;28;20496;-64
2023/05/28 01:16:29;;;;;;;26.90;8.27;;;10.70;99.90;;;;;;5043123;28;20041;-65
2023/05/28 01:18:55;;;;;;;24.42;8.77;;;10.70;99.90;;;;;;5026491;28;20116;-66
2023/05/28 01:21:27;;;;;;;30.10;7.88;;;10.70;99.90;;;;;;5041504;28;20048;-67
2023/05/28 01:23:56;;;;;;;26.25;8.60;;;10.70;99.90;;;;;;5042368;28;20049;-63
2023/05/28 01:26:22;;;;;;;32.33;9.20;;;10.70;99.90;;;;;;5043496;28;20841;-65
2023/05/28 01:28:48;;;;;;;32.08;8.70;;;10.70;99.90;;;;;;5044586;28;20582;-67
2023/05/28 01:31:15;;;;;;;23.48;9.00;;;10.70;99.90;;;;;;5044311;28;20076;-65
2023/05/28 01:33:41;;;;;;;33.08;9.30;;;10.70;99.90;;;;;;5042815;28;20056;-64
2023/05/28 01:36:13;;;;;;;29.52;8.93;;;10.70;99.90;;;;;;5043469;28;20049;-65
2023/05/28 01:38:40;;;;;;;30.90;8.25;;;10.70;99.90;;;;;;5044789;28;20033;-66
2023/05/28 01:41:07;;;;;;;25.67;8.82;;;10.70;99.90;;;;;;5043326;28;20049;-67
2023/05/28 01:43:33;;;;;;;32.85;9.82;;;10.60;99.90;;;;;;5043013;28;20127;-66
2023/05/28 01:46:00;;;;;;;35.30;9.63;;;10.60;99.90;;;;;;5044102;28;20048;-64
2023/05/28 01:48:26;;;;;;;30.85;9.10;;;10.60;99.90;;;;;;5042502;28;20032;-66
2023/05/28 01:50:53;;;;;;;29.17;9.02;;;10.60;99.90;;;;;;5041383;28;20037;-65
2023/05/28 01:53:19;;;;;;;30.83;9.60;;;10.60;99.90;;;;;;5043509;28;20541;-67
2023/05/28 01:55:44;;;;;;;22.48;8.73;;;10.60;99.90;;;;;;5044397;28;20127;-65
2023/05/28 01:58:10;;;;;;;35.25;8.63;;;10.60;99.90;;;;;;5042637;28;20045;-66
2023/05/28 02:00:43;;;;;;;25.40;8.55;;;10.60;99.90;;;;;;5043071;28;20075;-66
2023/05/28 02:03:11;;;;;;;28.50;9.52;;;10.70;99.90;;;;;;5026700;28;20033;-66
2023/05/28 02:05:37;;;;;;;24.38;8.52;;;10.60;99.90;;;;;;5044465;28;20041;-65
2023/05/28 02:08:03;;;;;;;30.42;9.30;;;10.60;99.90;;;;;;5044719;28;20041;-67
2023/05/28 02:10:28;;;;;;;24.52;8.15;;;10.60;99.90;;;;;;5060391;28;20063;-66
2023/05/28 02:12:54;;;;;;;28.23;8.15;;;10.60;99.90;;;;;;5042840;28;20646;-66
2023/05/28 02:15:21;;;;;;;25.65;8.45;;;10.60;99.90;;;;;;5043684;28;20440;-67
2023/05/28 02:17:47;;;;;;;31.67;9.25;;;10.70;99.90;;;;;;5047612;28;20045;-66
2023/05/28 02:20:13;;;;;;;31.55;9.15;;;10.70;99.90;;;;;;5045871;28;20045;-67
2023/05/28 02:22:38;;;;;;;26.48;9.23;;;10.70;99.90;;;;;;5047390;28;20049;-66
2023/05/28 02:25:05;;;;;;;29.30;9.63;;;10.70;99.90;;;;;;5046414;28;20432;-66
2023/05/28 02:27:30;;;;;;;31.23;8.10;;;10.70;99.90;;;;;;5047621;28;20083;-64
2023/05/28 02:29:56;;;;;;;28.10;8.70;;;10.70;99.90;;;;;;5046137;28;20496;-64
2023/05/28 02:32:22;;;;;;;31.08;8.02;;;10.80;99.90;;;;;;5070702;28;20040;-66
2023/05/28 02:34:48;;;;;;;28.00;8.20;;;10.80;99.90;;;;;;5066564;28;20044;-65
2023/05/28 02:37:14;;;;;;;27.98;8.35;;;10.80;99.90;;;;;;5065705;28;20649;-63
2023/05/28 02:39:40;;;;;;;24.58;7.82;;;10.80;99.90;;;;;;5057539;28;20044;-65
2023/05/28 02:42:05;;;;;;;26.92;8.15;;;10.80;99.90;;;;;;5046239;28;20098;-65
2023/05/28 02:44:31;;;;;;;27.20;8.05;;;10.80;99.90;;;;;;5046542;28;20624;-66
2023/05/28 02:46:57;;;;;;;31.70;9.30;;;10.70;99.90;;;;;;5046127;28;20090;-65
2023/05/28 02:49:22;;;;;;;28.65;8.95;;;10.70;99.90;;;;;;5047407;28;20515;-64
2023/05/28 02:51:48;;;;;;;30.25;9.27;;;10.70;99.90;;;;;;5045885;28;20487;-66
2023/05/28 02:54:14;;;;;;;30.17;8.60;;;10.70;99.90;;;;;;5046096;28;20516;-64
2023/05/28 02:56:40;;;;;;;28.63;8.25;;;10.60;99.90;;;;;;5046226;28;20279;-65
2023/05/28 02:59:05;;;;;;;23.40;8.40;;;10.60;99.90;;;;;;5029053;28;20532;-65
2023/05/28 03:01:31;;;;;;;20.88;8.50;;;10.60;99.90;;;;;;5045537;28;20041;-66
2023/05/28 03:03:57;;;;;;;20.52;8.00;;;10.60;99.90;;;;;;5045577;28;20037;-65
2023/05/28 03:06:22;;;;;;;25.77;8.82;;;10.60;99.90;;;;;;5043990;28;20048;-68
2023/05/28 03:08:48;;;;;;;31.58;8.23;;;10.60;99.90;;;;;;5047556;28;20051;-66
2023/05/28 03:11:14;;;;;;;31.33;9.38;;;10.70;99.90;;;;;;5045683;28;20035;-66
2023/05/28 03:13:39;;;;;;;24.98;7.93;;;10.70;99.90;;;;;;5046708;28;20549;-67
2023/05/28 03:16:06;;;;;;;28.63;8.32;;;10.70;99.90;;;;;;5045604;28;20047;-66
2023/05/28 03:18:31;;;;;;;27.85;7.90;;;10.70;99.90;;;;;;5045242;28;20136;-66
2023/05/28 03:20:57;;;;;;;26.33;8.73;;;10.70;99.90;;;;;;5044395;28;20149;-68
2023/05/28 03:23:23;;;;;;;33.42;8.25;;;10.70;99.90;;;;;;5029197;28;20037;-66
2023/05/28 03:25:48;;;;;;;29.35;8.32;;;10.70;99.90;;;;;;5045674;28;20072;-68
2023/05/28 03:28:14;;;;;;;29.45;8.35;;;10.80;99.90;;;;;;5045068;28;20095;-65
2023/05/28 03:30:40;;;;;;;24.42;8.38;;;10.80;99.90;;;;;;5044821;28;20040;-67
2023/05/28 03:33:05;;;;;;;28.73;8.45;;;10.80;99.90;;;;;;5045479;28;20593;-66
2023/05/28 03:35:31;;;;;;;29.50;9.43;;;10.80;99.90;;;;;;5051761;28;20108;-67
2023/05/28 03:37:57;;;;;;;24.60;8.13;;;10.80;99.90;;;;;;5064836;28;20063;-66
2023/05/28 03:40:22;;;;;;;25.05;7.50;;;10.80;99.90;;;;;;5066016;28;20072;-66
2023/05/28 03:42:48;;;;;;;21.92;7.72;;;10.80;99.90;;;;;;5065472;28;20470;-66
2023/05/28 03:45:14;;;;;;;23.33;8.10;;;10.80;99.90;;;;;;5060403;28;20045;-68
2023/05/28 03:47:40;;;;;;;26.25;8.07;;;10.80;99.90;;;;;;5044710;28;20036;-66
2023/05/28 03:50:06;;;;;;;33.85;8.93;;;10.80;99.90;;;;;;5044663;28;20087;-68
2023/05/28 03:52:32;;;;;;;25.90;8.30;;;10.80;99.90;;;;;;5043800;28;20037;-66
2023/05/28 03:54:58;;;;;;;30.13;8.88;;;10.80;99.90;;;;;;5044692;28;20047;-66
2023/05/28 03:57:24;;;;;;;26.35;8.05;;;10.80;99.90;;;;;;5044276;28;20049;-67
2023/05/28 03:59:49;;;;;;;24.25;8.18;;;10.80;99.90;;;;;;5061739;28;20041;-66
2023/05/28 04:02:15;;;;;;;23.55;7.22;;;10.80;99.90;;;;;;5044068;28;20051;-68
2023/05/28 04:04:41;;;;;;;31.40;8.38;;;10.80;99.90;;;;;;5046034;28;20041;-67
2023/05/28 04:07:07;;;;;;;21.85;6.78;;;10.90;99.90;;;;;;5042597;28;20056;-66
2023/05/28 04:09:32;;;;;;;22.17;7.50;;;10.90;99.90;;;;;;5044537;28;20091;-68
2023/05/28 04:11:58;;;;;;;22.90;7.38;;;10.90;99.90;;;;;;5044717;28;20746;-67
2023/05/28 04:14:25;;;;;;;28.85;7.93;;;10.90;99.90;;;;;;5061169;28;20068;-67
2023/05/28 04:16:50;;;;;;;29.45;7.78;;;10.90;99.90;;;;;;5048478;28;20112;-68
2023/05/28 04:19:16;;;;;;;27.40;7.72;;;10.90;99.90;;;;;;5061165;28;20037;-67
2023/05/28 04:21:42;;;;;;;25.60;7.90;;;11.00;99.90;;;;;;5042806;28;20044;-69
2023/05/28 04:24:07;;;;;;;26.45;7.85;;;11.00;99.90;;;;;;5044301;28;20782;-68
2023/05/28 04:26:34;;;;;;;23.98;7.18;;;11.00;99.90;;;;;;5045815;28;20049;-67
2023/05/28 04:29:00;;;;;;;26.00;7.47;;;11.00;99.90;;;;;;5045562;28;20124;-67
2023/05/28 04:31:27;;;;;;;25.00;7.07;;;11.00;99.90;;;;;;5044153;28;20128;-68
2023/05/28 04:33:53;;;;;;;22.00;7.80;;;11.10;99.90;;;;;;5064382;28;20079;-67
2023/05/28 04:36:20;;;;;;;26.98;7.32;;;11.10;99.90;;;;;;5062400;28;20105;-67
2023/05/28 04:38:46;;;;;;;29.95;7.80;;;11.20;99.90;;;;;;5058150;28;20037;-66
2023/05/28 04:41:15;;;;;;;19.02;7.60;;;11.20;99.90;;;;;;5060463;28;20056;-66
2023/05/28 04:43:41;;;;;;;23.55;7.70;;;11.20;99.90;;;;;;5045476;28;20045;-65
2023/05/28 04:46:08;;;;;;;28.17;7.32;;;11.10;99.90;;;;;;5043512;28;20041;-64
2023/05/28 04:48:37;;;;;;;22.25;7.70;;;11.10;99.90;;;;;;5045051;28;20504;-66
2023/05/28 04:51:03;;;;;;;25.88;7.50;;;11.20;99.90;;;;;;5042410;28;20455;-64
2023/05/28 04:53:31;;;;;;;32.47;7.53;;;11.20;99.90;;;;;;5044101;28;20431;-64
2023/05/28 04:55:56;;;;;;;28.75;7.78;;;11.20;99.90;;;;;;5043867;28;20049;-64
2023/05/28 04:58:22;;;;;;;23.92;7.28;;;11.20;99.90;;;;;;5043369;28;20107;-65
2023/05/28 05:00:48;;;;;;;25.13;7.78;;;11.40;99.90;;;;;;5043531;28;20049;-65
2023/05/28 05:03:14;;;;;;;22.05;7.40;;;11.40;99.90;;;;;;5045233;28;20036;-65
2023/05/28 05:05:40;;;;;;;23.98;7.45;;;11.50;99.90;;;;;;5042027;28;20840;-65
2023/05/28 05:08:06;;;;;;;22.95;7.70;;;11.70;99.90;;;;;;5043504;28;20059;-67
2023/05/28 05:10:32;;;;;;;24.08;7.43;;;11.90;99.90;;;;;;5043417;28;20041;-66
2023/05/28 05:12:59;;;;;;;24.85;8.10;;;12.10;99.90;;;;;;5043883;28;20533;-67
2023/05/28 05:15:25;;;;;;;24.88;7.47;;;12.30;99.90;;;;;;5043024;28;20367;-68
2023/05/28 05:17:52;;;;;;;23.65;7.47;;;12.30;99.90;;;;;;5043220;28;20073;-65
2023/05/28 05:20:17;;;;;;;22.80;6.90;;;12.40;99.90;;;;;;5042083;28;20045;-67
2023/05/28 05:22:43;;;;;;;20.52;7.15;;;12.30;99.90;;;;;;5043183;28;20039;-69
2023/05/28 05:25:09;;;;;;;24.00;7.57;;;12.20;99.90;;;;;;5043255;28;20511;-65
2023/05/28 05:27:36;;;;;;;23.35;7.13;;;12.20;99.90;;;;;;5026887;28;20040;-65
2023/05/28 05:30:06;;;;;;;19.83;6.82;;;12.10;99.90;;;;;;5044992;28;20049;-67
2023/05/28 05:32:32;;;;;;;24.75;7.45;;;12.10;99.90;;;;;;5046612;28;20404;-65
2023/05/28 05:34:57;;;;;;;16.58;6.30;;;12.10;99.90;;;;;;5046724;28;20036;-66
2023/05/28 05:37:23;;;;;;;22.88;6.88;;;12.10;99.90;;;;;;5055791;28;20037;-67
2023/05/28 05:39:49;;;;;;;22.20;7.22;;;12.20;99.90;;;;;;5044040;28;20037;-65
2023/05/28 05:42:15;;;;;;;23.65;6.68;;;12.30;99.90;;;;;;5043939;28;20102;-67
2023/05/28 05:44:40;;;;;;;22.42;6.90;;;12.60;99.90;;;;;;5044632;28;20040;-67
2023/05/28 05:47:06;;;;;;;18.73;5.78;;;13.00;99.90;;;;;;5042343;28;20503;-67
2023/05/28 05:49:32;;;;;;;25.98;6.47;;;13.30;99.90;;;;;;5043366;28;20045;-66
2023/05/28 05:51:57;;;;;;;22.27;6.22;;;13.70;99.90;;;;;;5043207;28;20143;-66
2023/05/28 05:54:23;;;;;;;22.90;6.63;;;14.00;99.90;;;;;;5048816;28;20547;-65
2023/05/28 05:56:49;;;;;;;20.02;5.63;;;14.20;99.90;;;;;;5046627;28;20098;-67
2023/05/28 05:59:15;;;;;;;16.92;6.07;;;14.30;99.90;;;;;;5046867;28;20052;-66
2023/05/28 06:01:41;;;;;;;25.88;6.35;;;14.60;99.90;;;;;;5047007;28;20122;-66
2023/05/28 06:04:06;;;;;;;18.63;6.25;;;15.00;99.90;;;;;;5030422;28;20048;-67
2023/05/28 06:06:32;;;;;;;20.55;6.25;;;15.30;99.90;;;;;;5045557;28;20302;-66
2023/05/28 06:08:57;;;;;;;19.80;6.00;;;15.50;99.90;;;;;;5046408;28;20039;-65
2023/05/28 06:11:23;;;;;;;16.38;6.10;;;15.50;99.90;;;;;;5047183;28;20123;-65
2023/05/28 06:13:50;;;;;;;18.92;6.47;;;15.30;99.90;;;;;;5030735;28;20087;-64
2023/05/28 06:16:16;;;;;;;17.52;6.18;;;15.20;99.90;;;;;;5046344;28;20044;-63
2023/05/28 06:18:41;;;;;;;20.75;5.47;;;15.20;99.90;;;;;;5063294;28;20072;-65
2023/05/28 06:21:07;;;;;;;20.63;5.53;;;15.20;99.90;;;;;;5045309;28;20135;-64
2023/05/28 06:23:34;;;;;;;20.65;6.15;;;15.20;99.90;;;;;;5044473;28;20044;-63
2023/05/28 06:26:00;;;;;;;20.20;6.45;;;15.20;99.90;;;;;;5046854;28;20428;-68
2023/05/28 06:28:26;;;;;;;16.40;5.57;;;15.10;99.90;;;;;;5045705;28;20159;-67
2023/05/28 06:30:52;;;;;;;16.85;6.50;;;15.00;99.90;;;;;;5046167;28;20662;-66
2023/05/28 06:33:18;;;;;;;18.15;6.18;;;15.00;99.90;;;;;;5063226;28;20431;-65
2023/05/28 06:35:43;;;;;;;20.05;6.57;;;15.10;99.90;;;;;;5047993;28;20052;-66
2023/05/28 06:38:09;;;;;;;19.45;5.72;;;15.20;99.90;;;;;;5064649;28;20074;-65
2023/05/28 06:40:34;;;;;;;17.00;5.88;;;15.20;99.90;;;;;;5046406;28;20492;-62
2023/05/28 06:43:01;;;;;;;14.90;5.82;;;15.30;99.90;;;;;;5063182;28;20036;-65
2023/05/28 06:45:27;;;;;;;15.13;5.80;;;15.30;99.90;;;;;;5046477;28;20094;-66
2023/05/28 06:47:53;;;;;;;15.00;6.53;;;15.30;99.90;;;;;;5046448;28;20041;-67
2023/05/28 06:50:18;;;;;;;16.63;6.40;;;15.30;99.90;;;;;;5046020;28;20045;-67
2023/05/28 06:52:44;;;;;;;15.57;5.95;;;15.40;99.90;;;;;;5063338;28;20075;-68
2023/05/28 06:55:10;;;;;;;15.45;6.40;;;15.50;99.90;;;;;;5045778;28;20558;-67
2023/05/28 06:57:36;;;;;;;13.20;5.90;;;15.60;99.90;;;;;;5045547;28;20083;-67
2023/05/28 07:00:09;;;;;;;15.27;6.35;;;15.70;99.90;;;;;;5045936;28;20064;-67
2023/05/28 07:02:36;;;;;;;14.25;5.78;;;15.70;99.90;;;;;;5065528;28;20546;-68
2023/05/28 07:05:04;;;;;;;13.38;5.70;;;15.80;99.90;;;;;;5064334;28;20052;-66
2023/05/28 07:07:33;;;;;;;17.52;6.10;;;15.90;99.90;;;;;;5064615;28;20454;-65
2023/05/28 07:09:58;;;;;;;13.18;5.70;;;16.00;99.90;;;;;;5050701;28;20141;-66
2023/05/28 07:12:24;;;;;;;14.32;6.05;;;16.00;99.90;;;;;;5047097;28;20132;-66
2023/05/28 07:14:50;;;;;;;14.05;6.35;;;16.00;99.90;;;;;;5047036;28;20044;-64
2023/05/28 07:17:16;;;;;;;15.45;6.32;;;16.00;99.90;;;;;;5046338;28;20677;-67
2023/05/28 07:19:42;;;;;;;12.45;5.25;;;16.00;99.90;;;;;;5029004;28;20060;-66
2023/05/28 07:22:07;;;;;;;13.25;5.50;;;16.00;99.90;;;;;;5045051;28;20079;-66
2023/05/28 07:24:33;;;;;;;10.57;4.68;;;16.10;99.90;;;;;;5045546;28;20045;-67
2023/05/28 07:26:59;;;;;;;13.90;5.18;;;16.10;99.90;;;;;;5045160;28;20037;-64
2023/05/28 07:29:26;;;;;;;12.07;4.53;;;16.20;99.90;;;;;;5045162;28;20045;-64
2023/05/28 07:31:52;;;;;;;15.02;4.70;;;16.20;99.90;;;;;;5048294;28;20597;-66
2023/05/28 07:34:18;;;;;;;14.00;5.10;;;16.20;99.90;;;;;;5065446;28;20055;-66
2023/05/28 07:36:44;;;;;;;9.95;4.40;;;16.20;99.90;;;;;;5047982;28;20102;-64
2023/05/28 07:39:13;;;;;;;13.02;4.55;;;16.20;99.90;;;;;;5038888;28;20052;-67
2023/05/28 07:41:39;;;;;;;15.82;5.00;;;16.30;99.90;;;;;;5047013;28;20085;-66
2023/05/28 07:44:08;;;;;;;14.35;5.55;;;16.30;99.90;;;;;;5045448;28;20182;-63
2023/05/28 07:46:34;;;;;;;13.30;4.70;;;16.40;99.90;;;;;;5058352;28;20484;-66
2023/05/28 07:49:00;;;;;;;12.05;5.07;;;16.40;99.90;;;;;;5061441;28;20257;-62
2023/05/28 07:51:26;;;;;;;13.73;4.78;;;16.50;99.90;;;;;;5043329;28;20295;-63
2023/05/28 07:53:52;;;;;;;15.98;5.00;;;16.50;99.90;;;;;;5061765;28;20065;-64
2023/05/28 07:56:20;;;;;;;12.05;4.30;;;16.60;99.90;;;;;;5045182;28;20041;-66
2023/05/28 07:58:46;;;;;;;12.75;4.30;;;16.60;99.90;;;;;;5056242;28;20079;-65
2023/05/28 08:01:12;;;;;;;13.85;4.95;;;16.60;99.90;;;;;;5055323;28;20048;-66
2023/05/28 08:03:37;;;;;;;11.68;4.53;;;16.60;99.60;;;;;;5034536;28;20048;-62
2023/05/28 08:06:03;;;;;;;14.02;4.68;;;16.60;97.30;;;;;;5067922;28;20046;-62
2023/05/28 08:08:29;;;;;;;11.13;4.85;;;16.70;96.00;;;;;;5068208;28;20048;-63
2023/05/28 08:10:55;;;;;;;8.05;4.15;;;16.80;94.00;;;;;;5050808;28;20040;-64
2023/05/28 08:13:21;;;;;;;11.13;4.78;;;16.70;91.80;;;;;;5066513;28;20476;-66
2023/05/28 08:15:47;;;;;;;11.18;4.97;;;16.70;91.90;;;;;;5062238;28;20057;-63
2023/05/28 08:18:13;;;;;;;10.02;4.60;;;16.80;92.00;;;;;;5067177;28;20096;-66
2023/05/28 08:20:39;;;;;;;11.10;4.75;;;16.90;92.10;;;;;;5060925;28;20584;-64
2023/05/28 08:23:05;;;;;;;9.50;4.47;;;17.00;91.50;;;;;;5063170;28;20036;-66
2023/05/28 08:25:35;;;;;;;12.70;4.65;;;17.10;91.00;;;;;;5062275;28;20106;-64
2023/05/28 08:28:01;;;;;;;11.55;4.30;;;17.10;91.10;;;;;;5080863;28;20036;-66
2023/05/28 08:30:27;;;;;;;10.05;4.28;;;17.10;91.30;;;;;;5068213;28;20059;-63
2023/05/28 08:32:52;;;;;;;10.07;4.88;;;17.20;91.30;;;;;;5072478;28;20039;-66
2023/05/28 08:35:18;;;;;;;13.10;4.68;;;17.30;90.40;;;;;;5063739;28;20037;-64
2023/05/28 08:37:43;;;;;;;14.45;4.68;;;17.30;90.50;;;;;;5046180;28;20442;-63
2023/05/28 08:40:10;;;;;;;10.60;4.40;;;17.30;90.80;;;;;;5049088;28;20780;-64
2023/05/28 08:42:36;;;;;;;10.45;4.18;;;17.40;90.30;;;;;;5060878;28;20045;-65
2023/05/28 08:45:03;;;;;;;14.32;5.35;;;17.40;90.20;;;;;;5045093;28;20492;-66
2023/05/28 08:47:32;;;;;;;13.30;5.72;;;17.50;87.60;;;;;;5043079;28;20044;-63
2023/05/28 08:50:03;;;;;;;11.95;5.35;;;17.50;88.60;;;;;;5058866;28;20076;-64
2023/05/28 08:52:31;;;;;;;13.00;6.00;;;17.60;85.00;;;;;;5062920;28;20040;-63
2023/05/28 08:55:01;;;;;;;14.07;7.13;;;17.60;84.00;;;;;;5064023;28;20166;-63
2023/05/28 08:57:29;;;;;;;12.40;7.20;;;17.60;72.50;;;;;;5061735;28;20404;-65
2023/05/28 08:59:55;;;;;;;12.77;5.85;;;17.60;65.60;;;;;;5063580;28;20032;-64
2023/05/28 09:02:25;;;;;;;10.15;5.20;;;17.50;71.40;;;;;;5045626;28;20045;-63
2023/05/28 09:04:51;;;;;;;14.02;5.43;;;17.60;72.10;;;;;;5045293;28;20045;-63
2023/05/28 09:07:16;;;;;;;9.93;5.20;;;17.60;74.80;;;;;;5041558;28;20055;-64
2023/05/28 09:09:42;;;;;;;12.82;5.50;;;17.70;78.00;;;;;;5043467;28;20070;-64
2023/05/28 09:12:13;;;;;;;19.70;6.50;;;17.70;74.60;;;;;;5045022;28;20374;-63
2023/05/28 09:14:40;;;;;;;18.05;5.78;;;17.70;71.20;;;;;;5033932;28;20113;-63
2023/05/28 09:17:13;;;;;;;11.77;5.63;;;17.80;72.80;;;;;;5057817;28;20122;-64
2023/05/28 09:19:39;;;;;;;23.77;6.40;;;17.90;75.10;;;;;;5063399;28;20040;-62
2023/05/28 09:22:05;;;;;;;12.45;5.88;;;18.00;79.90;;;;;;5061664;28;20028;-62
2023/05/28 09:24:32;;;;;;;11.88;5.90;;;18.10;79.10;;;;;;5045574;28;20390;-65
2023/05/28 09:26:57;;;;;;;13.07;5.72;;;18.10;78.40;;;;;;5063541;28;20040;-64
2023/05/28 09:29:24;;;;;;;11.93;5.57;;;18.00;80.10;;;;;;5063651;28;20036;-64
2023/05/28 09:31:57;;;;;;;15.25;6.20;;;18.10;80.00;;;;;;5058773;28;20092;-62
2023/05/28 09:34:31;;;;;;;14.20;6.17;;;18.10;80.00;;;;;;5043803;28;20044;-64
2023/05/28 09:37:01;;;;;;;14.50;6.03;;;18.20;81.80;;;;;;5041321;28;20044;-65
2023/05/28 09:39:27;;;;;;;14.20;6.10;;;18.30;83.80;;;;;;5044661;28;20052;-62
2023/05/28 09:42:09;;;;;;;12.40;5.78;;;18.40;83.10;;;;;;5043740;28;20049;-62
2023/05/28 09:44:37;;;;;;;15.82;6.18;;;18.40;80.60;;;;;;5048532;28;20051;-61
2023/05/28 09:47:17;;;;;;;12.32;6.18;;;18.50;80.10;;;;;;5047403;28;20504;-63
2023/05/28 09:49:44;;;;;;;11.77;6.78;;;18.50;78.20;;;;;;5026548;28;20048;-61
2023/05/28 09:52:21;;;;;;;14.40;7.00;;;18.60;78.20;;;;;;5049608;28;20086;-64
2023/05/28 09:54:52;;;;;;;13.88;6.63;;;18.70;78.70;;;;;;5049378;28;20121;-64
2023/05/28 09:57:24;;;;;;;12.68;6.50;;;18.70;79.30;;;;;;5059281;28;20049;-64
2023/05/28 09:59:54;;;;;;;14.10;6.32;;;18.80;78.60;;;;;;5047540;28;20564;-62
2023/05/28 10:02:30;;;;;;;13.27;6.30;;;18.80;78.60;;;;;;5045371;28;20071;-64
2023/05/28 10:04:59;;;;;;;13.80;7.03;;;18.90;75.50;;;;;;5060572;28;20653;-64
2023/05/28 10:07:27;;;;;;;12.32;6.07;;;18.90;76.70;;;;;;5057350;28;20024;-65
2023/05/28 10:09:55;;;;;;;13.15;6.78;;;18.90;76.10;;;;;;5043175;28;20032;-64
2023/05/28 10:12:29;;;;;;;12.00;6.82;;;18.90;76.70;;;;;;5079007;28;20435;-63
2023/05/28 10:14:56;;;;;;;15.25;7.20;;;19.00;72.80;;;;;;5045672;28;20083;-65
2023/05/28 10:17:21;;;;;;;13.25;6.82;;;19.00;72.60;;;;;;5044637;28;20047;-65
2023/05/28 10:19:47;;;;;;;13.82;7.28;;;19.00;70.60;;;;;;5046697;28;20045;-64
2023/05/28 10:22:15;;;;;;;13.57;6.85;;;19.00;70.30;;;;;;5063086;28;20040;-62
2023/05/28 10:24:42;;;;;;;13.57;6.20;;;19.10;70.50;;;;;;5054375;28;20044;-61
2023/05/28 10:27:12;;;;;;;13.98;6.38;;;19.10;71.00;;;;;;5061905;28;20063;-64
2023/05/28 10:29:42;;;;;;;15.13;6.88;;;19.10;68.40;;;;;;5063535;28;20052;-64
2023/05/28 10:32:08;;;;;;;14.07;6.40;;;19.10;68.30;;;;;;5094724;28;20063;-63
2023/05/28 10:34:36;;;;;;;12.00;6.28;;;19.20;69.20;;;;;;5045641;28;20036;-63
2023/05/28 10:37:06;;;;;;;11.30;6.32;;;19.20;69.00;;;;;;5059148;28;20044;-63
2023/05/28 10:39:47;;;;;;;14.00;6.45;;;19.20;68.10;;;;;;5063165;28;20392;-62
2023/05/28 10:42:18;;;;;;;14.65;7.45;;;19.10;68.00;;;;;;5064327;28;20481;-62
2023/05/28 10:45:02;;;;;;;12.68;6.45;;;19.10;66.90;;;;;;5065257;28;20032;-64
2023/05/28 10:47:39;;;;;;;12.63;7.30;;;19.20;65.70;;;;;;5048007;28;20094;-62
2023/05/28 10:50:16;;;;;;;14.70;7.50;;;19.10;66.80;;;;;;5065300;28;20125;-66
2023/05/28 10:52:42;;;;;;;15.52;7.78;;;19.10;67.40;;;;;;5065090;28;20524;-63
2023/05/28 10:55:10;;;;;;;12.73;7.30;;;19.00;64.90;;;;;;5066528;28;20515;-63
2023/05/28 10:57:43;;;;;;;13.82;6.97;;;19.00;65.00;;;;;;5067089;28;20139;-65
2023/05/28 11:00:13;;;;;;;12.70;6.57;;;19.00;65.60;;;;;;5066009;28;20613;-65
2023/05/28 11:02:44;;;;;;;16.63;7.38;;;19.10;66.90;;;;;;5048082;28;20033;-67
2023/05/28 11:05:10;;;;;;;14.18;6.60;;;19.00;68.10;;;;;;5046925;28;20033;-64
2023/05/28 11:07:41;;;;;;;13.38;6.90;;;19.00;69.10;;;;;;5046586;28;20041;-66
2023/05/28 11:10:12;;;;;;;11.30;6.13;;;19.00;71.10;;;;;;5044793;28;20147;-64
2023/05/28 11:12:40;;;;;;;11.50;5.55;;;19.10;71.20;;;;;;5066110;28;20047;-64
2023/05/28 11:15:08;;;;;;;11.00;5.07;;;19.20;70.70;;;;;;5049039;28;20104;-63
2023/05/28 11:17:41;;;;;;;9.98;4.68;;;19.20;67.90;;;;;;5061430;28;20048;-63
2023/05/28 11:20:27;;;;;;;10.52;4.90;;;19.30;67.90;;;;;;5062366;28;20415;-65
2023/05/28 11:22:54;;;;;;;11.35;5.47;;;19.50;68.00;;;;;;5045963;28;20076;-62
2023/05/28 11:25:26;;;;;;;12.63;5.30;;;19.60;69.00;;;;;;5076719;28;20295;-63
2023/05/28 11:27:53;;;;;;;14.20;5.03;;;19.70;69.50;;;;;;5066340;28;20083;-64
2023/05/28 11:30:20;;;;;;;11.50;4.78;;;19.70;69.40;;;;;;5063158;28;20143;-65
2023/05/28 11:32:47;;;;;;;10.43;4.82;;;19.80;68.60;;;;;;5063705;28;20025;-65
2023/05/28 11:35:14;;;;;;;11.82;4.55;;;19.80;69.30;;;;;;5063566;28;20051;-64
2023/05/28 11:37:41;;;;;;;10.40;4.45;;;19.70;67.90;;;;;;5063944;28;20033;-61
2023/05/28 11:40:12;;;;;;;11.00;4.57;;;19.60;69.40;;;;;;5064686;28;20041;-63
2023/05/28 11:42:39;;;;;;;11.70;3.63;;;19.60;71.00;;;;;;5064808;28;20036;-65
2023/05/28 11:45:06;;;;;;;12.70;3.75;;;19.60;71.00;;;;;;5065160;28;20068;-63
2023/05/28 11:47:33;;;;;;;8.73;3.88;;;19.50;71.20;;;;;;5062380;28;20044;-63
2023/05/28 11:50:05;;;;;;;13.13;4.53;;;19.50;72.70;;;;;;5064746;28;20044;-62
2023/05/28 11:52:31;;;;;;;11.73;4.00;;;19.50;74.10;;;;;;5058383;28;20037;-63
2023/05/28 11:54:58;;;;;;;12.63;4.35;;;19.50;75.70;;;;;;5045227;28;20037;-64
2023/05/28 11:57:26;;;;;;;14.65;4.70;;;19.60;77.60;;;;;;5044423;28;20049;-64
2023/05/28 12:00:10;;;;;;;13.18;4.10;;;19.60;79.70;;;;;;5048898;28;20036;-63
2023/05/28 12:02:43;;;;;;;10.43;3.88;;;19.70;81.20;;;;;;5045875;28;20666;-66
2023/05/28 12:05:09;;;;;;;9.53;4.10;;;19.80;82.90;;;;;;5027312;28;20041;-66
2023/05/28 12:07:35;;;;;;;10.27;3.63;;;19.70;83.10;;;;;;5044862;28;20040;-64
2023/05/28 12:10:12;;;;;;;12.88;4.35;;;19.70;82.60;;;;;;5046404;28;20396;-61
2023/05/28 12:12:48;;;;;;;12.10;4.22;;;19.70;85.70;;;;;;5044415;28;20874;-64
2023/05/28 12:15:14;;;;;;;13.88;4.45;;;19.60;84.90;;;;;;5061286;28;20040;-64
2023/05/28 12:17:42;;;;;;;14.07;4.15;;;19.40;86.20;;;;;;5045583;28;20134;-66
2023/05/28 12:20:36;;;;;;;12.88;4.53;;;19.40;88.90;;;;;;5063034;28;20032;-69
2023/05/28 12:23:09;;;;;;;12.52;4.20;;;19.40;90.00;;;;;;5064407;28;20566;-63
2023/05/28 12:25:42;;;;;;;13.17;4.03;;;19.30;91.00;;;;;;5061816;28;20039;-63
2023/05/28 12:28:07;;;;;;;11.90;3.88;;;19.30;90.90;;;;;;5063838;28;20306;-65
2023/05/28 12:30:33;;;;;;;15.82;3.97;;;19.30;91.40;;;;;;5057053;28;20056;-65
2023/05/28 12:32:59;;;;;;;10.90;4.07;;;19.20;92.30;;;;;;5057171;28;20097;-65
2023/05/28 12:35:25;;;;;;;12.07;3.90;;;19.10;93.20;;;;;;5060427;28;20116;-68